PHBK METAR and TAF | Updated Today

PHBK METAR

Barking Sands Airport

Observation time: 4 min. ago

PHBK 292051Z AUTO 30007KT 10SM FEW036 30/21 A3006 RMK AO2 SLP180 T03000206 50003

Need help? Read our tutorial on how to read METARs or read the parsed version below.

Barking Sands Airport (PHBK) METAR

  • Weather conditions on Thu, 29 Sep 2022 20:51:00 +0000 (4 min. ago):
  • Present conditions: Dry
  • Clouds: A few at 1097 meters
  • Visibility: 16093 meters
  • Wind: 300 degrees at 7 knots
  • Temperature: 30 celsius
  • Dew point: 21 celsius
  • Pressure: 30.06 inHg
  • Remarks: AO2 SLP180 T03000206 50003


Useful to know...

PHBK TAF

Barking Sands Airport

TAF not found.